sensor_id;sensor_type;location;lat;lon;timestamp;P1;durP1;ratioP1;P2;durP2;ratioP2
15216;SDS011;7711;46.634;14.318;2024-03-23T00:53:26;10.00;;;7.37;;
15216;SDS011;7711;46.634;14.318;2024-03-23T00:55:51;9.20;;;7.80;;
15216;SDS011;7711;46.634;14.318;2024-03-23T00:58:19;8.80;;;7.70;;
15216;SDS011;7711;46.634;14.318;2024-03-23T01:00:45;10.40;;;7.50;;
15216;SDS011;7711;46.634;14.318;2024-03-23T01:03:12;8.77;;;7.67;;
15216;SDS011;7711;46.634;14.318;2024-03-23T01:05:38;10.73;;;8.23;;
15216;SDS011;7711;46.634;14.318;2024-03-23T01:08:06;11.60;;;7.80;;
15216;SDS011;7711;46.634;14.318;2024-03-23T01:10:32;16.00;;;8.30;;
15216;SDS011;7711;46.634;14.318;2024-03-23T01:12:59;9.63;;;7.57;;
15216;SDS011;7711;46.634;14.318;2024-03-23T01:15:25;8.67;;;7.40;;
15216;SDS011;7711;46.634;14.318;2024-03-23T01:17:53;11.37;;;7.77;;
15216;SDS011;7711;46.634;14.318;2024-03-23T01:20:18;12.13;;;7.83;;
15216;SDS011;7711;46.634;14.318;2024-03-23T01:22:45;12.57;;;8.70;;
15216;SDS011;7711;46.634;14.318;2024-03-23T01:25:13;13.07;;;8.33;;
15216;SDS011;7711;46.634;14.318;2024-03-23T01:27:40;11.90;;;8.23;;
15216;SDS011;7711;46.634;14.318;2024-03-23T01:30:06;13.20;;;8.53;;
15216;SDS011;7711;46.634;14.318;2024-03-23T01:32:33;12.90;;;8.73;;
15216;SDS011;7711;46.634;14.318;2024-03-23T01:34:59;17.53;;;9.33;;
15216;SDS011;7711;46.634;14.318;2024-03-23T01:37:26;13.63;;;9.43;;
15216;SDS011;7711;46.634;14.318;2024-03-23T01:39:52;15.77;;;9.23;;
15216;SDS011;7711;46.634;14.318;2024-03-23T01:42:20;13.50;;;8.90;;
15216;SDS011;7711;46.634;14.318;2024-03-23T01:44:46;14.70;;;9.87;;
15216;SDS011;7711;46.634;14.318;2024-03-23T01:47:13;17.03;;;9.73;;
15216;SDS011;7711;46.634;14.318;2024-03-23T01:49:40;15.60;;;10.13;;
15216;SDS011;7711;46.634;14.318;2024-03-23T01:52:07;15.90;;;9.87;;
15216;SDS011;7711;46.634;14.318;2024-03-23T01:54:33;15.67;;;10.43;;
15216;SDS011;7711;46.634;14.318;2024-03-23T01:57:01;21.03;;;12.10;;
15216;SDS011;7711;46.634;14.318;2024-03-23T01:59:28;19.13;;;12.67;;
15216;SDS011;7711;46.634;14.318;2024-03-23T02:01:55;16.70;;;11.07;;
15216;SDS011;7711;46.634;14.318;2024-03-23T02:04:21;13.00;;;9.10;;
15216;SDS011;7711;46.634;14.318;2024-03-23T02:06:48;12.53;;;9.03;;
15216;SDS011;7711;46.634;14.318;2024-03-23T02:09:14;14.03;;;9.27;;
15216;SDS011;7711;46.634;14.318;2024-03-23T02:11:41;11.70;;;8.33;;
15216;SDS011;7711;46.634;14.318;2024-03-23T02:14:07;10.37;;;8.83;;
15216;SDS011;7711;46.634;14.318;2024-03-23T02:16:36;14.57;;;9.27;;
15216;SDS011;7711;46.634;14.318;2024-03-23T02:19:02;12.10;;;8.80;;
15216;SDS011;7711;46.634;14.318;2024-03-23T02:21:28;11.03;;;8.97;;
15216;SDS011;7711;46.634;14.318;2024-03-23T02:23:58;14.60;;;8.40;;
15216;SDS011;7711;46.634;14.318;2024-03-23T02:26:25;11.13;;;8.60;;
15216;SDS011;7711;46.634;14.318;2024-03-23T02:28:51;13.83;;;9.27;;
15216;SDS011;7711;46.634;14.318;2024-03-23T02:31:18;10.27;;;8.80;;
15216;SDS011;7711;46.634;14.318;2024-03-23T02:33:44;12.90;;;9.57;;
15216;SDS011;7711;46.634;14.318;2024-03-23T02:36:11;14.77;;;9.03;;
15216;SDS011;7711;46.634;14.318;2024-03-23T02:38:37;11.30;;;9.17;;
15216;SDS011;7711;46.634;14.318;2024-03-23T02:41:05;11.83;;;8.83;;
15216;SDS011;7711;46.634;14.318;2024-03-23T02:43:31;11.20;;;8.43;;
15216;SDS011;7711;46.634;14.318;2024-03-23T02:45:58;10.70;;;8.37;;
15216;SDS011;7711;46.634;14.318;2024-03-23T02:48:26;12.90;;;8.63;;
15216;SDS011;7711;46.634;14.318;2024-03-23T02:50:51;12.43;;;8.67;;
15216;SDS011;7711;46.634;14.318;2024-03-23T02:53:19;15.93;;;9.03;;
15216;SDS011;7711;46.634;14.318;2024-03-23T02:55:45;14.40;;;9.20;;
15216;SDS011;7711;46.634;14.318;2024-03-23T02:58:14;13.57;;;9.10;;
15216;SDS011;7711;46.634;14.318;2024-03-23T03:00:40;12.47;;;8.90;;
15216;SDS011;7711;46.634;14.318;2024-03-23T03:03:07;13.13;;;9.07;;
15216;SDS011;7711;46.634;14.318;2024-03-23T03:05:34;11.97;;;9.13;;
15216;SDS011;7711;46.634;14.318;2024-03-23T03:08:00;12.90;;;9.10;;
15216;SDS011;7711;46.634;14.318;2024-03-23T03:10:26;14.73;;;9.80;;
15216;SDS011;7711;46.634;14.318;2024-03-23T03:12:54;12.57;;;8.77;;
15216;SDS011;7711;46.634;14.318;2024-03-23T03:15:21;12.03;;;9.27;;
15216;SDS011;7711;46.634;14.318;2024-03-23T03:17:48;15.67;;;9.47;;
15216;SDS011;7711;46.634;14.318;2024-03-23T03:20:14;10.53;;;8.87;;
15216;SDS011;7711;46.634;14.318;2024-03-23T03:22:42;13.70;;;8.70;;
15216;SDS011;7711;46.634;14.318;2024-03-23T03:25:08;13.87;;;8.70;;
15216;SDS011;7711;46.634;14.318;2024-03-23T03:27:35;11.37;;;9.10;;
15216;SDS011;7711;46.634;14.318;2024-03-23T03:30:01;11.23;;;8.30;;
15216;SDS011;7711;46.634;14.318;2024-03-23T03:32:32;10.77;;;8.13;;
15216;SDS011;7711;46.634;14.318;2024-03-23T03:34:58;13.30;;;9.23;;
15216;SDS011;7711;46.634;14.318;2024-03-23T03:37:25;11.53;;;8.70;;
15216;SDS011;7711;46.634;14.318;2024-03-23T03:39:51;13.30;;;9.30;;
15216;SDS011;7711;46.634;14.318;2024-03-23T03:42:18;11.67;;;9.20;;
15216;SDS011;7711;46.634;14.318;2024-03-23T03:44:44;13.30;;;8.57;;
15216;SDS011;7711;46.634;14.318;2024-03-23T03:47:11;10.10;;;8.90;;
15216;SDS011;7711;46.634;14.318;2024-03-23T03:49:38;10.03;;;8.43;;
15216;SDS011;7711;46.634;14.318;2024-03-23T03:52:05;14.33;;;8.77;;
15216;SDS011;7711;46.634;14.318;2024-03-23T03:54:31;14.10;;;9.27;;
15216;SDS011;7711;46.634;14.318;2024-03-23T03:56:59;11.17;;;8.57;;
15216;SDS011;7711;46.634;14.318;2024-03-23T03:59:25;14.63;;;8.80;;
15216;SDS011;7711;46.634;14.318;2024-03-23T04:01:52;14.50;;;9.47;;
15216;SDS011;7711;46.634;14.318;2024-03-23T04:04:18;13.13;;;9.07;;
15216;SDS011;7711;46.634;14.318;2024-03-23T04:06:47;13.90;;;9.30;;
15216;SDS011;7711;46.634;14.318;2024-03-23T04:09:13;15.90;;;9.53;;
15216;SDS011;7711;46.634;14.318;2024-03-23T04:11:40;16.80;;;9.77;;
15216;SDS011;7711;46.634;14.318;2024-03-23T04:14:06;11.50;;;9.20;;
15216;SDS011;7711;46.634;14.318;2024-03-23T04:16:33;12.23;;;9.23;;
15216;SDS011;7711;46.634;14.318;2024-03-23T04:19:00;13.30;;;9.80;;
15216;SDS011;7711;46.634;14.318;2024-03-23T04:21:27;17.93;;;9.50;;
15216;SDS011;7711;46.634;14.318;2024-03-23T04:23:55;16.20;;;10.20;;
15216;SDS011;7711;46.634;14.318;2024-03-23T04:26:22;14.83;;;9.23;;
15216;SDS011;7711;46.634;14.318;2024-03-23T04:28:48;11.40;;;8.87;;
15216;SDS011;7711;46.634;14.318;2024-03-23T04:31:14;13.67;;;8.80;;
15216;SDS011;7711;46.634;14.318;2024-03-23T04:33:40;12.50;;;9.50;;
15216;SDS011;7711;46.634;14.318;2024-03-23T04:36:07;15.43;;;9.07;;
15216;SDS011;7711;46.634;14.318;2024-03-23T04:38:35;13.17;;;9.70;;
15216;SDS011;7711;46.634;14.318;2024-03-23T04:41:03;14.73;;;9.27;;
15216;SDS011;7711;46.634;14.318;2024-03-23T04:43:29;18.33;;;10.03;;
15216;SDS011;7711;46.634;14.318;2024-03-23T04:45:56;13.60;;;10.63;;
15216;SDS011;7711;46.634;14.318;2024-03-23T04:48:23;14.43;;;9.90;;
15216;SDS011;7711;46.634;14.318;2024-03-23T04:50:54;12.07;;;9.13;;
15216;SDS011;7711;46.634;14.318;2024-03-23T04:53:22;12.53;;;9.10;;
15216;SDS011;7711;46.634;14.318;2024-03-23T04:55:53;15.60;;;9.40;;
15216;SDS011;7711;46.634;14.318;2024-03-23T04:58:21;15.10;;;9.50;;
15216;SDS011;7711;46.634;14.318;2024-03-23T05:00:48;11.60;;;9.03;;
15216;SDS011;7711;46.634;14.318;2024-03-23T05:03:19;13.63;;;9.17;;
15216;SDS011;7711;46.634;14.318;2024-03-23T05:05:46;11.43;;;8.90;;
15216;SDS011;7711;46.634;14.318;2024-03-23T05:08:13;15.00;;;9.90;;
15216;SDS011;7711;46.634;14.318;2024-03-23T05:10:39;13.87;;;9.20;;
15216;SDS011;7711;46.634;14.318;2024-03-23T05:13:07;13.47;;;9.13;;
15216;SDS011;7711;46.634;14.318;2024-03-23T05:15:35;13.00;;;8.70;;
15216;SDS011;7711;46.634;14.318;2024-03-23T05:18:02;13.70;;;9.57;;
15216;SDS011;7711;46.634;14.318;2024-03-23T05:20:28;12.87;;;9.57;;
15216;SDS011;7711;46.634;14.318;2024-03-23T05:22:55;13.17;;;9.30;;
15216;SDS011;7711;46.634;14.318;2024-03-23T05:25:21;16.07;;;9.70;;
15216;SDS011;7711;46.634;14.318;2024-03-23T05:27:48;15.83;;;10.50;;
15216;SDS011;7711;46.634;14.318;2024-03-23T05:30:14;15.23;;;10.23;;
15216;SDS011;7711;46.634;14.318;2024-03-23T05:32:42;15.00;;;10.23;;
15216;SDS011;7711;46.634;14.318;2024-03-23T05:35:09;12.83;;;10.00;;
15216;SDS011;7711;46.634;14.318;2024-03-23T05:37:37;17.67;;;11.23;;
15216;SDS011;7711;46.634;14.318;2024-03-23T05:40:03;15.43;;;10.80;;
15216;SDS011;7711;46.634;14.318;2024-03-23T05:42:30;14.33;;;9.97;;
15216;SDS011;7711;46.634;14.318;2024-03-23T05:44:56;11.97;;;10.03;;
15216;SDS011;7711;46.634;14.318;2024-03-23T05:47:23;20.33;;;12.27;;
15216;SDS011;7711;46.634;14.318;2024-03-23T05:49:51;23.13;;;14.43;;
15216;SDS011;7711;46.634;14.318;2024-03-23T05:52:18;25.63;;;14.83;;
15216;SDS011;7711;46.634;14.318;2024-03-23T05:54:46;34.47;;;18.90;;
15216;SDS011;7711;46.634;14.318;2024-03-23T05:57:13;29.23;;;17.63;;
15216;SDS011;7711;46.634;14.318;2024-03-23T05:59:38;32.77;;;17.90;;
15216;SDS011;7711;46.634;14.318;2024-03-23T06:02:05;20.07;;;14.60;;
15216;SDS011;7711;46.634;14.318;2024-03-23T06:04:32;21.43;;;12.50;;
15216;SDS011;7711;46.634;14.318;2024-03-23T06:07:00;13.87;;;10.33;;
15216;SDS011;7711;46.634;14.318;2024-03-23T06:09:27;10.03;;;7.40;;
15216;SDS011;7711;46.634;14.318;2024-03-23T06:11:56;8.93;;;7.20;;
15216;SDS011;7711;46.634;14.318;2024-03-23T06:14:23;10.10;;;6.73;;
15216;SDS011;7711;46.634;14.318;2024-03-23T06:16:49;10.20;;;7.20;;
15216;SDS011;7711;46.634;14.318;2024-03-23T06:19:15;12.50;;;7.70;;
15216;SDS011;7711;46.634;14.318;2024-03-23T06:21:43;12.03;;;7.70;;
15216;SDS011;7711;46.634;14.318;2024-03-23T06:24:10;9.93;;;7.07;;
15216;SDS011;7711;46.634;14.318;2024-03-23T06:26:37;11.20;;;7.13;;
15216;SDS011;7711;46.634;14.318;2024-03-23T06:29:03;10.43;;;7.77;;
15216;SDS011;7711;46.634;14.318;2024-03-23T06:31:31;14.70;;;6.73;;
15216;SDS011;7711;46.634;14.318;2024-03-23T06:33:57;10.33;;;7.33;;
15216;SDS011;7711;46.634;14.318;2024-03-23T06:36:24;11.53;;;7.13;;
15216;SDS011;7711;46.634;14.318;2024-03-23T06:38:50;12.63;;;7.47;;
15216;SDS011;7711;46.634;14.318;2024-03-23T06:41:19;10.97;;;7.53;;
15216;SDS011;7711;46.634;14.318;2024-03-23T06:43:45;10.77;;;7.03;;
15216;SDS011;7711;46.634;14.318;2024-03-23T06:46:12;8.87;;;6.73;;
15216;SDS011;7711;46.634;14.318;2024-03-23T06:48:38;8.73;;;6.13;;
15216;SDS011;7711;46.634;14.318;2024-03-23T06:51:04;9.27;;;6.77;;
15216;SDS011;7711;46.634;14.318;2024-03-23T06:53:31;9.07;;;6.57;;
15216;SDS011;7711;46.634;14.318;2024-03-23T06:55:58;9.07;;;6.57;;
15216;SDS011;7711;46.634;14.318;2024-03-23T06:58:27;10.03;;;7.07;;
15216;SDS011;7711;46.634;14.318;2024-03-23T07:00:54;10.30;;;6.97;;
15216;SDS011;7711;46.634;14.318;2024-03-23T07:03:20;11.90;;;6.97;;
15216;SDS011;7711;46.634;14.318;2024-03-23T07:05:47;10.23;;;6.67;;
15216;SDS011;7711;46.634;14.318;2024-03-23T07:08:13;7.23;;;6.43;;
15216;SDS011;7711;46.634;14.318;2024-03-23T07:10:46;9.77;;;6.93;;
15216;SDS011;7711;46.634;14.318;2024-03-23T07:13:12;11.13;;;8.67;;
15216;SDS011;7711;46.634;14.318;2024-03-23T07:15:40;10.33;;;7.07;;
15216;SDS011;7711;46.634;14.318;2024-03-23T07:18:06;7.97;;;7.00;;
15216;SDS011;7711;46.634;14.318;2024-03-23T07:20:33;10.73;;;7.23;;
15216;SDS011;7711;46.634;14.318;2024-03-23T07:22:59;8.00;;;6.30;;
15216;SDS011;7711;46.634;14.318;2024-03-23T07:25:26;13.10;;;7.03;;
15216;SDS011;7711;46.634;14.318;2024-03-23T07:27:54;10.27;;;7.87;;
15216;SDS011;7711;46.634;14.318;2024-03-23T07:30:21;10.40;;;7.13;;
15216;SDS011;7711;46.634;14.318;2024-03-23T07:32:48;10.53;;;6.60;;
15216;SDS011;7711;46.634;14.318;2024-03-23T07:35:15;11.40;;;7.30;;
15216;SDS011;7711;46.634;14.318;2024-03-23T07:37:41;10.20;;;6.80;;
15216;SDS011;7711;46.634;14.318;2024-03-23T07:40:09;11.27;;;7.20;;
15216;SDS011;7711;46.634;14.318;2024-03-23T07:42:36;9.23;;;7.47;;
15216;SDS011;7711;46.634;14.318;2024-03-23T07:45:04;10.17;;;7.60;;
15216;SDS011;7711;46.634;14.318;2024-03-23T07:47:30;11.10;;;7.80;;
15216;SDS011;7711;46.634;14.318;2024-03-23T07:49:59;11.33;;;7.60;;
15216;SDS011;7711;46.634;14.318;2024-03-23T07:52:27;13.03;;;7.70;;
15216;SDS011;7711;46.634;14.318;2024-03-23T07:54:54;11.93;;;7.97;;
15216;SDS011;7711;46.634;14.318;2024-03-23T07:57:20;9.50;;;7.00;;
15216;SDS011;7711;46.634;14.318;2024-03-23T07:59:47;10.80;;;7.23;;
15216;SDS011;7711;46.634;14.318;2024-03-23T08:02:13;8.90;;;6.77;;
15216;SDS011;7711;46.634;14.318;2024-03-23T08:04:40;9.17;;;7.07;;
15216;SDS011;7711;46.634;14.318;2024-03-23T08:07:07;12.97;;;7.03;;
15216;SDS011;7711;46.634;14.318;2024-03-23T08:09:34;11.40;;;7.40;;
15216;SDS011;7711;46.634;14.318;2024-03-23T08:12:00;11.70;;;7.87;;
15216;SDS011;7711;46.634;14.318;2024-03-23T08:14:27;14.37;;;7.33;;
15216;SDS011;7711;46.634;14.318;2024-03-23T08:16:54;14.77;;;8.03;;
15216;SDS011;7711;46.634;14.318;2024-03-23T08:19:21;12.67;;;7.67;;
15216;SDS011;7711;46.634;14.318;2024-03-23T08:21:47;11.87;;;7.50;;
15216;SDS011;7711;46.634;14.318;2024-03-23T08:24:17;11.83;;;7.70;;
15216;SDS011;7711;46.634;14.318;2024-03-23T08:26:44;9.73;;;6.47;;
15216;SDS011;7711;46.634;14.318;2024-03-23T08:29:12;8.43;;;6.80;;
15216;SDS011;7711;46.634;14.318;2024-03-23T08:31:38;9.83;;;7.33;;
15216;SDS011;7711;46.634;14.318;2024-03-23T08:34:05;9.80;;;6.93;;
15216;SDS011;7711;46.634;14.318;2024-03-23T08:36:31;9.17;;;7.43;;
15216;SDS011;7711;46.634;14.318;2024-03-23T08:38:58;10.50;;;7.17;;
15216;SDS011;7711;46.634;14.318;2024-03-23T08:41:25;10.27;;;7.10;;
15216;SDS011;7711;46.634;14.318;2024-03-23T08:43:53;12.60;;;6.77;;
15216;SDS011;7711;46.634;14.318;2024-03-23T08:46:19;10.63;;;7.10;;
15216;SDS011;7711;46.634;14.318;2024-03-23T08:48:46;11.90;;;7.20;;
15216;SDS011;7711;46.634;14.318;2024-03-23T08:51:14;9.40;;;7.13;;
15216;SDS011;7711;46.634;14.318;2024-03-23T08:53:42;10.17;;;7.10;;
15216;SDS011;7711;46.634;14.318;2024-03-23T08:56:09;12.17;;;9.77;;
15216;SDS011;7711;46.634;14.318;2024-03-23T08:58:38;14.80;;;9.43;;
15216;SDS011;7711;46.634;14.318;2024-03-23T09:01:05;9.77;;;6.95;;
15216;SDS011;7711;46.634;14.318;2024-03-23T09:03:33;12.38;;;7.20;;
15216;SDS011;7711;46.634;14.318;2024-03-23T09:06:00;10.10;;;7.75;;
15216;SDS011;7711;46.634;14.318;2024-03-23T09:08:28;10.43;;;6.97;;
15216;SDS011;7711;46.634;14.318;2024-03-23T09:10:55;8.50;;;6.57;;
15216;SDS011;7711;46.634;14.318;2024-03-23T09:13:22;9.60;;;7.00;;
15216;SDS011;7711;46.634;14.318;2024-03-23T09:15:50;12.07;;;7.50;;
15216;SDS011;7711;46.634;14.318;2024-03-23T09:18:21;9.95;;;7.50;;
15216;SDS011;7711;46.634;14.318;2024-03-23T09:20:49;9.75;;;7.63;;
15216;SDS011;7711;46.634;14.318;2024-03-23T09:23:15;11.55;;;7.13;;
15216;SDS011;7711;46.634;14.318;2024-03-23T09:25:43;9.85;;;6.70;;
15216;SDS011;7711;46.634;14.318;2024-03-23T09:28:09;10.88;;;6.25;;
15216;SDS011;7711;46.634;14.318;2024-03-23T09:30:36;8.57;;;6.50;;
15216;SDS011;7711;46.634;14.318;2024-03-23T09:33:08;11.23;;;6.82;;
15216;SDS011;7711;46.634;14.318;2024-03-23T09:35:36;10.77;;;6.95;;
15216;SDS011;7711;46.634;14.318;2024-03-23T09:38:03;7.65;;;5.70;;
15216;SDS011;7711;46.634;14.318;2024-03-23T09:40:30;10.82;;;6.60;;
15216;SDS011;7711;46.634;14.318;2024-03-23T09:42:58;9.68;;;6.47;;
15216;SDS011;7711;46.634;14.318;2024-03-23T09:45:26;9.80;;;6.43;;
15216;SDS011;7711;46.634;14.318;2024-03-23T09:47:54;7.85;;;6.78;;
15216;SDS011;7711;46.634;14.318;2024-03-23T09:50:23;9.75;;;7.20;;
15216;SDS011;7711;46.634;14.318;2024-03-23T09:52:49;9.15;;;6.78;;
15216;SDS011;7711;46.634;14.318;2024-03-23T09:55:17;10.82;;;7.72;;
15216;SDS011;7711;46.634;14.318;2024-03-23T09:57:43;6.78;;;6.10;;
15216;SDS011;7711;46.634;14.318;2024-03-23T10:00:10;10.90;;;6.50;;
15216;SDS011;7711;46.634;14.318;2024-03-23T10:02:37;7.60;;;6.50;;
15216;SDS011;7711;46.634;14.318;2024-03-23T10:05:05;9.63;;;6.93;;
15216;SDS011;7711;46.634;14.318;2024-03-23T10:07:48;12.20;;;7.15;;
15216;SDS011;7711;46.634;14.318;2024-03-23T10:10:15;8.05;;;6.80;;
15216;SDS011;7711;46.634;14.318;2024-03-23T10:12:43;9.15;;;6.38;;
15216;SDS011;7711;46.634;14.318;2024-03-23T10:15:17;10.75;;;7.03;;
15216;SDS011;7711;46.634;14.318;2024-03-23T10:17:44;6.93;;;6.20;;
15216;SDS011;7711;46.634;14.318;2024-03-23T10:20:11;7.97;;;6.18;;
15216;SDS011;7711;46.634;14.318;2024-03-23T10:22:38;7.00;;;6.28;;
15216;SDS011;7711;46.634;14.318;2024-03-23T10:25:10;8.23;;;6.35;;
15216;SDS011;7711;46.634;14.318;2024-03-23T10:27:37;8.02;;;6.30;;
15216;SDS011;7711;46.634;14.318;2024-03-23T10:30:13;9.05;;;6.13;;
15216;SDS011;7711;46.634;14.318;2024-03-23T10:32:40;7.90;;;5.85;;
15216;SDS011;7711;46.634;14.318;2024-03-23T10:35:14;9.52;;;6.28;;
15216;SDS011;7711;46.634;14.318;2024-03-23T10:37:43;8.07;;;5.90;;
15216;SDS011;7711;46.634;14.318;2024-03-23T10:40:13;9.52;;;6.80;;
15216;SDS011;7711;46.634;14.318;2024-03-23T10:42:39;11.43;;;7.18;;
15216;SDS011;7711;46.634;14.318;2024-03-23T10:45:07;7.57;;;6.65;;
15216;SDS011;7711;46.634;14.318;2024-03-23T10:47:34;9.88;;;7.30;;
15216;SDS011;7711;46.634;14.318;2024-03-23T10:50:03;8.55;;;6.72;;
15216;SDS011;7711;46.634;14.318;2024-03-23T10:52:30;8.20;;;6.47;;
15216;SDS011;7711;46.634;14.318;2024-03-23T10:54:58;11.90;;;6.63;;
15216;SDS011;7711;46.634;14.318;2024-03-23T10:57:28;8.95;;;7.00;;
15216;SDS011;7711;46.634;14.318;2024-03-23T10:59:59;10.57;;;6.82;;
15216;SDS011;7711;46.634;14.318;2024-03-23T11:02:27;11.90;;;8.55;;
15216;SDS011;7711;46.634;14.318;2024-03-23T11:04:55;10.40;;;7.93;;
15216;SDS011;7711;46.634;14.318;2024-03-23T11:07:30;9.82;;;8.27;;
15216;SDS011;7711;46.634;14.318;2024-03-23T11:09:58;11.95;;;8.60;;
15216;SDS011;7711;46.634;14.318;2024-03-23T11:12:49;7.55;;;6.47;;
15216;SDS011;7711;46.634;14.318;2024-03-23T11:15:16;9.13;;;7.68;;
15216;SDS011;7711;46.634;14.318;2024-03-23T11:17:42;11.07;;;8.02;;
15216;SDS011;7711;46.634;14.318;2024-03-23T11:20:31;9.77;;;8.40;;
15216;SDS011;7711;46.634;14.318;2024-03-23T11:22:57;10.82;;;8.45;;
15216;SDS011;7711;46.634;14.318;2024-03-23T11:25:25;9.23;;;7.60;;
15216;SDS011;7711;46.634;14.318;2024-03-23T11:27:54;11.50;;;8.70;;
15216;SDS011;7711;46.634;14.318;2024-03-23T11:30:23;9.93;;;7.85;;
15216;SDS011;7711;46.634;14.318;2024-03-23T11:32:50;9.20;;;7.93;;
15216;SDS011;7711;46.634;14.318;2024-03-23T11:35:28;12.73;;;7.93;;
15216;SDS011;7711;46.634;14.318;2024-03-23T11:38:05;12.77;;;9.13;;
15216;SDS011;7711;46.634;14.318;2024-03-23T11:40:34;10.60;;;8.18;;
15216;SDS011;7711;46.634;14.318;2024-03-23T11:43:03;10.18;;;7.90;;
15216;SDS011;7711;46.634;14.318;2024-03-23T11:45:35;12.80;;;7.47;;
15216;SDS011;7711;46.634;14.318;2024-03-23T11:48:07;8.30;;;6.85;;
15216;SDS011;7711;46.634;14.318;2024-03-23T11:50:36;8.43;;;6.90;;
15216;SDS011;7711;46.634;14.318;2024-03-23T11:53:08;9.25;;;7.13;;
15216;SDS011;7711;46.634;14.318;2024-03-23T11:55:46;11.57;;;8.48;;
15216;SDS011;7711;46.634;14.318;2024-03-23T11:58:15;11.55;;;7.82;;
15216;SDS011;7711;46.634;14.318;2024-03-23T12:00:48;9.65;;;6.70;;
15216;SDS011;7711;46.634;14.318;2024-03-23T12:03:16;7.97;;;6.28;;
15216;SDS011;7711;46.634;14.318;2024-03-23T12:05:47;8.38;;;6.13;;
15216;SDS011;7711;46.634;14.318;2024-03-23T12:08:18;7.85;;;6.43;;
15216;SDS011;7711;46.634;14.318;2024-03-23T12:10:49;8.73;;;6.68;;
15216;SDS011;7711;46.634;14.318;2024-03-23T12:13:18;7.53;;;6.28;;
15216;SDS011;7711;46.634;14.318;2024-03-23T12:15:46;8.35;;;6.57;;
15216;SDS011;7711;46.634;14.318;2024-03-23T12:18:13;7.05;;;5.90;;
15216;SDS011;7711;46.634;14.318;2024-03-23T12:20:40;8.50;;;6.63;;
15216;SDS011;7711;46.634;14.318;2024-03-23T12:23:06;10.13;;;6.95;;
15216;SDS011;7711;46.634;14.318;2024-03-23T12:25:35;9.07;;;6.65;;
15216;SDS011;7711;46.634;14.318;2024-03-23T12:28:01;6.85;;;5.80;;
15216;SDS011;7711;46.634;14.318;2024-03-23T12:30:32;7.95;;;6.35;;
15216;SDS011;7711;46.634;14.318;2024-03-23T12:32:59;8.85;;;6.93;;
15216;SDS011;7711;46.634;14.318;2024-03-23T12:35:26;9.13;;;6.93;;
15216;SDS011;7711;46.634;14.318;2024-03-23T12:37:52;8.27;;;5.70;;
15216;SDS011;7711;46.634;14.318;2024-03-23T12:40:19;6.53;;;5.82;;
15216;SDS011;7711;46.634;14.318;2024-03-23T12:42:45;8.48;;;6.40;;
15216;SDS011;7711;46.634;14.318;2024-03-23T12:45:12;8.55;;;6.03;;
15216;SDS011;7711;46.634;14.318;2024-03-23T12:47:39;7.55;;;6.00;;
15216;SDS011;7711;46.634;14.318;2024-03-23T12:50:06;7.80;;;6.05;;
15216;SDS011;7711;46.634;14.318;2024-03-23T12:52:33;7.97;;;6.18;;
15216;SDS011;7711;46.634;14.318;2024-03-23T12:55:00;8.02;;;5.93;;
15216;SDS011;7711;46.634;14.318;2024-03-23T12:57:26;8.02;;;6.25;;
15216;SDS011;7711;46.634;14.318;2024-03-23T12:59:53;7.45;;;5.80;;
15216;SDS011;7711;46.634;14.318;2024-03-23T13:02:19;7.13;;;5.75;;
15216;SDS011;7711;46.634;14.318;2024-03-23T13:04:49;7.13;;;6.10;;
15216;SDS011;7711;46.634;14.318;2024-03-23T13:07:15;8.00;;;5.82;;
15216;SDS011;7711;46.634;14.318;2024-03-23T13:09:42;7.68;;;6.00;;
15216;SDS011;7711;46.634;14.318;2024-03-23T13:12:08;7.07;;;5.82;;
15216;SDS011;7711;46.634;14.318;2024-03-23T13:14:37;6.07;;;5.47;;
15216;SDS011;7711;46.634;14.318;2024-03-23T13:17:03;8.05;;;5.97;;
15216;SDS011;7711;46.634;14.318;2024-03-23T13:19:30;9.13;;;5.63;;
15216;SDS011;7711;46.634;14.318;2024-03-23T13:21:58;9.52;;;6.03;;
15216;SDS011;7711;46.634;14.318;2024-03-23T13:24:25;8.27;;;6.70;;
15216;SDS011;7711;46.634;14.318;2024-03-23T13:26:52;9.52;;;7.15;;
15216;SDS011;7711;46.634;14.318;2024-03-23T13:29:19;11.35;;;8.60;;
15216;SDS011;7711;46.634;14.318;2024-03-23T13:31:46;11.05;;;7.63;;
15216;SDS011;7711;46.634;14.318;2024-03-23T13:34:13;11.63;;;9.13;;
15216;SDS011;7711;46.634;14.318;2024-03-23T13:36:40;10.73;;;7.85;;
15216;SDS011;7711;46.634;14.318;2024-03-23T13:39:09;11.10;;;7.43;;
15216;SDS011;7711;46.634;14.318;2024-03-23T13:41:37;7.97;;;6.47;;
15216;SDS011;7711;46.634;14.318;2024-03-23T13:44:05;8.45;;;6.65;;
15216;SDS011;7711;46.634;14.318;2024-03-23T13:46:31;9.02;;;6.90;;
15216;SDS011;7711;46.634;14.318;2024-03-23T13:48:58;9.10;;;7.25;;
15216;SDS011;7711;46.634;14.318;2024-03-23T13:51:24;11.65;;;7.63;;
15216;SDS011;7711;46.634;14.318;2024-03-23T13:53:53;10.13;;;6.60;;
15216;SDS011;7711;46.634;14.318;2024-03-23T13:56:21;7.15;;;6.28;;
15216;SDS011;7711;46.634;14.318;2024-03-23T13:58:48;7.63;;;5.50;;
15216;SDS011;7711;46.634;14.318;2024-03-23T14:01:14;6.50;;;5.32;;
15216;SDS011;7711;46.634;14.318;2024-03-23T14:03:41;6.18;;;5.20;;
15216;SDS011;7711;46.634;14.318;2024-03-23T14:06:08;6.32;;;4.82;;
15216;SDS011;7711;46.634;14.318;2024-03-23T14:08:35;6.80;;;5.38;;
15216;SDS011;7711;46.634;14.318;2024-03-23T14:11:04;6.57;;;5.88;;
15216;SDS011;7711;46.634;14.318;2024-03-23T14:13:33;6.05;;;5.43;;
15216;SDS011;7711;46.634;14.318;2024-03-23T14:15:59;6.80;;;5.03;;
15216;SDS011;7711;46.634;14.318;2024-03-23T14:18:26;7.85;;;5.25;;
15216;SDS011;7711;46.634;14.318;2024-03-23T14:20:52;6.47;;;4.82;;
15216;SDS011;7711;46.634;14.318;2024-03-23T14:23:23;7.50;;;5.78;;
15216;SDS011;7711;46.634;14.318;2024-03-23T14:25:50;6.47;;;5.60;;
15216;SDS011;7711;46.634;14.318;2024-03-23T14:28:19;7.50;;;5.28;;
15216;SDS011;7711;46.634;14.318;2024-03-23T14:30:46;8.45;;;5.55;;
15216;SDS011;7711;46.634;14.318;2024-03-23T14:33:13;7.80;;;5.88;;
15216;SDS011;7711;46.634;14.318;2024-03-23T14:35:39;6.45;;;5.00;;
15216;SDS011;7711;46.634;14.318;2024-03-23T14:38:06;8.32;;;5.35;;
15216;SDS011;7711;46.634;14.318;2024-03-23T14:40:32;7.72;;;5.47;;
15216;SDS011;7711;46.634;14.318;2024-03-23T14:42:59;6.22;;;5.10;;
15216;SDS011;7711;46.634;14.318;2024-03-23T14:45:25;7.80;;;5.53;;
15216;SDS011;7711;46.634;14.318;2024-03-23T14:47:54;7.38;;;5.57;;
15216;SDS011;7711;46.634;14.318;2024-03-23T14:50:20;6.47;;;5.53;;
15216;SDS011;7711;46.634;14.318;2024-03-23T14:52:47;7.18;;;5.20;;
15216;SDS011;7711;46.634;14.318;2024-03-23T14:55:13;9.90;;;6.07;;
15216;SDS011;7711;46.634;14.318;2024-03-23T14:57:40;7.13;;;5.15;;
15216;SDS011;7711;46.634;14.318;2024-03-23T15:00:07;6.63;;;4.90;;
15216;SDS011;7711;46.634;14.318;2024-03-23T15:02:36;5.50;;;4.63;;
15216;SDS011;7711;46.634;14.318;2024-03-23T15:05:03;6.40;;;5.22;;
15216;SDS011;7711;46.634;14.318;2024-03-23T15:07:32;7.57;;;5.00;;
15216;SDS011;7711;46.634;14.318;2024-03-23T15:09:58;8.70;;;4.80;;
15216;SDS011;7711;46.634;14.318;2024-03-23T15:12:25;6.75;;;4.63;;
15216;SDS011;7711;46.634;14.318;2024-03-23T15:14:51;7.13;;;4.75;;
15216;SDS011;7711;46.634;14.318;2024-03-23T15:17:18;8.73;;;6.35;;
15216;SDS011;7711;46.634;14.318;2024-03-23T15:19:44;12.73;;;5.57;;
15216;SDS011;7711;46.634;14.318;2024-03-23T15:22:12;7.13;;;5.55;;
15216;SDS011;7711;46.634;14.318;2024-03-23T15:24:38;8.50;;;5.45;;
15216;SDS011;7711;46.634;14.318;2024-03-23T15:27:05;6.45;;;5.72;;
15216;SDS011;7711;46.634;14.318;2024-03-23T15:29:34;5.85;;;4.43;;
15216;SDS011;7711;46.634;14.318;2024-03-23T15:32:01;5.00;;;4.47;;